Time;durP1;ratioP1;P1;durP2;ratioP2;P2;SDS_P1;SDS_P2;PMS_P1;PMS_P2;Temp;Humidity;BMP_temperature;BMP_pressure;BME280_temperature;BME280_humidity;BME280_pressure;Samples;Min_cycle;Max_cycle;Signal;HPM_P1;HPM_P2
2021/12/14 00:00:39;;;;;;;;;;;;;;;-144.99;100.00;52637.66;5067584;28;19973;-67
2021/12/14 00:03:05;;;;;;;;;;;;;;;-144.99;100.00;52684.53;5067977;28;19977;-67
2021/12/14 00:05:33;;;;;;;;;;;;;;;-144.99;100.00;52647.84;5067230;28;20016;-67
2021/12/14 00:08:01;;;;;;;;;;;;;;;-144.99;100.00;52684.53;5064201;28;20484;-68
2021/12/14 00:10:46;;;;;;;;;;;;;;;-144.99;100.00;52619.31;5067208;28;19973;-67
2021/12/14 00:13:20;;;;;;;;;;;;;;;-144.99;100.00;52664.16;5071473;28;20429;-67
2021/12/14 00:15:47;;;;;;;;;;;;;;;-144.99;100.00;52664.16;5071374;28;20030;-66
2021/12/14 00:18:14;;;;;;;;;;;;;;;-144.99;100.00;52706.97;5068761;28;19973;-66
2021/12/14 00:20:43;;;;;;;;;;;;;;;-144.99;100.00;52664.16;5071105;28;20068;-66
2021/12/14 00:25:56;;;;;;;;;;;;;;;-144.99;100.00;52627.47;5071833;28;20030;-67
2021/12/14 00:28:25;;;;;;;;;;;;;;;-144.99;100.00;52647.84;5066167;28;19989;-65
2021/12/14 00:30:52;;;;;;;;;;;;;;;-144.99;100.00;52615.25;5071354;28;19973;-67
2021/12/14 00:33:20;;;;;;;;;;;;;;;-144.99;100.00;52651.94;5072066;28;20007;-66
2021/12/14 00:35:47;;;;;;;;;;;;;;;-144.99;100.00;52656.00;5071724;28;19984;-67
2021/12/14 00:38:14;;;;;;;;;;;;;;;-144.99;100.00;52651.94;5068261;28;20430;-67
2021/12/14 00:40:49;;;;;;;;;;;;;;;-144.99;100.00;52643.78;5070996;28;19980;-67
2021/12/14 00:43:15;;;;;;;;;;;;;;;-144.99;100.00;52680.47;5069159;28;19976;-67
2021/12/14 00:45:44;;;;;;;;;;;;;;;-144.99;100.00;52664.16;5069957;28;19973;-67
2021/12/14 00:48:11;;;;;;;;;;;;;;;-144.99;100.00;52680.47;5060889;28;20025;-67
2021/12/14 00:50:38;;;;;;;;;;;;;;;-144.99;100.00;52639.69;5068134;28;20354;-67
2021/12/14 00:53:05;;;;;;;;;;;;;;;-144.99;100.00;52639.69;5067827;28;20490;-67
2021/12/14 00:55:36;;;;;;;;;;;;;;;-144.99;100.00;52668.22;5067206;28;19973;-67
2021/12/14 00:58:03;;;;;;;;;;;;;;;-144.99;100.00;52639.69;5060320;28;20028;-66
2021/12/14 01:00:32;;;;;;;;;;;;;;;-144.99;100.00;52633.59;5062443;28;19981;-67
2021/12/14 01:03:00;;;;;;;;;;;;;;;-144.99;100.00;52643.78;5067743;28;19977;-66
2021/12/14 01:05:31;;;;;;;;;;;;;;;-144.99;100.00;52615.25;5064276;28;19980;-66
2021/12/14 01:07:58;;;;;;;;;;;;;;;-144.99;100.00;52656.00;5067003;28;20102;-66
2021/12/14 01:10:26;;;;;;;;;;;;;;;-144.99;100.00;52688.63;5063343;28;19979;-66
2021/12/14 01:12:57;;;;;;;;;;;;;;;-144.99;100.00;52680.47;5067994;28;19973;-66
2021/12/14 01:15:29;;;;;;;;;;;;;;;-144.99;100.00;52676.38;5067192;28;20008;-65
2021/12/14 01:18:02;;;;;;;;;;;;;;;-144.99;100.00;52611.16;5067121;28;19973;-65
2021/12/14 01:20:39;;;;;;;;;;;;;;;-144.99;100.00;52649.88;5065777;28;20403;-65
2021/12/14 01:23:15;;;;;;;;;;;;;;;-144.99;100.00;52641.72;5067501;28;20447;-65
2021/12/14 01:25:45;;;;;;;;;;;;;;;-144.99;100.00;52668.22;5066114;28;20751;-67
2021/12/14 01:28:14;;;;;;;;;;;;;;;-144.99;100.00;52635.63;5064009;28;19989;-67
2021/12/14 01:30:52;;;;;;;;;;;;;;;-144.99;100.00;52668.22;5066949;28;19979;-70
2021/12/14 01:33:21;;;;;;;;;;;;;;;-144.99;100.00;52649.88;5065632;28;20050;-70
2021/12/14 01:35:49;;;;;;;;;;;;;;;-144.99;100.00;52692.69;5068103;28;19973;-70
2021/12/14 01:38:21;;;;;;;;;;;;;;;-144.99;100.00;52680.47;5080523;28;20008;-72
2021/12/14 01:40:55;;;;;;;;;;;;;;;-144.99;100.00;52651.94;5083247;28;20036;-69
2021/12/14 01:43:24;;;;;;;;;;;;;;;-144.99;100.00;52660.09;5078499;28;20088;-68
2021/12/14 01:45:51;;;;;;;;;;;;;;;-144.99;100.00;52672.31;5067449;28;20505;-68
2021/12/14 01:48:18;;;;;;;;;;;;;;;-144.99;100.00;52668.22;5071626;28;19989;-68
2021/12/14 01:50:46;;;;;;;;;;;;;;;-144.99;100.00;52647.84;5074587;28;19996;-68
2021/12/14 01:53:15;;;;;;;;;;;;;;;-144.99;100.00;52668.22;5073428;28;19973;-69
2021/12/14 01:55:43;;;;;;;;;;;;;;;-144.99;100.00;52645.81;5071050;28;19976;-68
2021/12/14 01:58:10;;;;;;;;;;;;;;;-144.99;100.00;52639.69;5068130;28;20042;-69
2021/12/14 02:00:39;;;;;;;;;;;;;;;-144.99;100.00;52631.53;5072106;28;19973;-68
2021/12/14 02:03:07;;;;;;;;;;;;;;;-144.99;100.00;52651.94;5068361;28;20341;-68
2021/12/14 02:05:35;;;;;;;;;;;;;;;-144.99;100.00;52639.69;5067565;28;19995;-68
2021/12/14 02:08:03;;;;;;;;;;;;;;;-144.99;100.00;52660.09;5065949;28;20561;-67
2021/12/14 02:10:33;;;;;;;;;;;;;;;-144.99;100.00;52660.09;5064959;28;19981;-67
2021/12/14 02:13:00;;;;;;;;;;;;;;;-144.99;100.00;52668.22;5070515;28;19981;-68
2021/12/14 02:15:29;;;;;;;;;;;;;;;-144.99;100.00;52668.22;5070023;28;20078;-69
2021/12/14 02:17:58;;;;;;;;;;;;;;;-144.99;100.00;52672.31;5070364;28;19977;-69
2021/12/14 02:20:26;;;;;;;;;;;;;;;-144.99;100.00;52639.69;5064396;28;19988;-70
2021/12/14 02:22:54;;;;;;;;;;;;;;;-144.99;100.00;52631.53;5070344;28;19976;-69
2021/12/14 02:25:20;;;;;;;;;;;;;;;-144.99;100.00;52660.09;5069256;28;20004;-69
2021/12/14 02:27:49;;;;;;;;;;;;;;;-144.99;100.00;52688.63;5070016;28;20004;-69
2021/12/14 02:30:17;;;;;;;;;;;;;;;-144.99;100.00;52631.53;5067872;28;19955;-69
2021/12/14 02:32:44;;;;;;;;;;;;;;;-144.99;100.00;52647.84;5069053;28;19973;-69
2021/12/14 02:35:13;;;;;;;;;;;;;;;-144.99;100.00;52662.13;5068969;28;20292;-68
2021/12/14 02:37:40;;;;;;;;;;;;;;;-144.99;100.00;52637.66;5067642;28;20003;-67
2021/12/14 02:40:16;;;;;;;;;;;;;;;-144.99;100.00;52676.38;5068938;28;20059;-67
2021/12/14 02:42:43;;;;;;;;;;;;;;;-144.99;100.00;52668.22;5073886;28;20364;-68
2021/12/14 02:45:10;;;;;;;;;;;;;;;-144.99;100.00;52668.22;5063321;28;20001;-67
2021/12/14 02:47:36;;;;;;;;;;;;;;;-144.99;100.00;52651.94;5074002;28;19973;-67
2021/12/14 02:50:04;;;;;;;;;;;;;;;-144.99;100.00;52656.00;5069085;28;19977;-66
2021/12/14 02:52:34;;;;;;;;;;;;;;;-144.99;100.00;52674.34;5068988;28;20456;-66
2021/12/14 02:55:02;;;;;;;;;;;;;;;-144.99;100.00;52647.84;5068408;28;20404;-66
2021/12/14 02:57:31;;;;;;;;;;;;;;;-144.99;100.00;52651.94;5068582;28;19984;-68
2021/12/14 02:59:58;;;;;;;;;;;;;;;-144.99;100.00;52680.47;5069074;28;19973;-68
2021/12/14 03:02:27;;;;;;;;;;;;;;;-144.99;100.00;52623.38;5063547;28;19973;-66
2021/12/14 03:04:55;;;;;;;;;;;;;;;-144.99;100.00;52631.53;5068845;28;20079;-66
2021/12/14 03:07:24;;;;;;;;;;;;;;;-144.99;100.00;52662.13;5067135;28;19980;-66
2021/12/14 03:09:57;;;;;;;;;;;;;;;-144.99;100.00;52611.16;5069365;28;20461;-66
2021/12/14 03:12:24;;;;;;;;;;;;;;;-144.99;100.00;52651.94;5063117;28;19980;-66
2021/12/14 03:14:54;;;;;;;;;;;;;;;-144.99;100.00;52639.69;5069786;28;19992;-65
2021/12/14 03:17:21;;;;;;;;;;;;;;;-144.99;100.00;52696.78;5072182;28;19976;-65
2021/12/14 03:19:52;;;;;;;;;;;;;;;-144.99;100.00;52619.31;5072178;28;19975;-69
2021/12/14 03:22:21;;;;;;;;;;;;;;;-144.99;100.00;52658.03;5075361;28;19981;-70
2021/12/14 03:24:48;;;;;;;;;;;;;;;-144.99;100.00;52676.38;5077981;28;19995;-69
2021/12/14 03:27:14;;;;;;;;;;;;;;;-144.99;100.00;52656.00;5076444;28;19973;-70
2021/12/14 03:29:41;;;;;;;;;;;;;;;-144.99;100.00;52664.16;5077254;28;20064;-69
2021/12/14 03:32:08;;;;;;;;;;;;;;;-144.99;100.00;52662.13;5075422;28;19979;-70
2021/12/14 03:34:36;;;;;;;;;;;;;;;-144.99;100.00;52672.31;5075520;28;19995;-69
2021/12/14 03:37:05;;;;;;;;;;;;;;;-144.99;100.00;52678.44;5074687;28;19996;-70
2021/12/14 03:39:32;;;;;;;;;;;;;;;-144.99;100.00;52668.22;5073569;28;19980;-69
2021/12/14 03:42:01;;;;;;;;;;;;;;;-144.99;100.00;52615.25;5073236;28;19973;-69
2021/12/14 03:44:29;;;;;;;;;;;;;;;-144.99;100.00;52696.78;5067752;28;19996;-68
2021/12/14 03:46:57;;;;;;;;;;;;;;;-144.99;100.00;52635.63;5069897;28;19973;-68
2021/12/14 03:49:26;;;;;;;;;;;;;;;-144.99;100.00;52680.47;5069136;28;19981;-68
2021/12/14 03:51:53;;;;;;;;;;;;;;;-144.99;100.00;52651.94;5064522;28;19973;-69
2021/12/14 03:54:20;;;;;;;;;;;;;;;-144.99;100.00;52670.28;5068097;28;20024;-68
2021/12/14 03:56:47;;;;;;;;;;;;;;;-144.99;100.00;52666.19;5068560;28;20428;-69
2021/12/14 03:59:14;;;;;;;;;;;;;;;-144.99;100.00;52664.16;5070159;28;20539;-69
2021/12/14 04:01:42;;;;;;;;;;;;;;;-144.99;100.00;52664.16;5068608;28;20205;-68
2021/12/14 04:04:15;;;;;;;;;;;;;;;-144.99;100.00;52594.84;5065416;28;20496;-69
2021/12/14 04:06:44;;;;;;;;;;;;;;;-144.99;100.00;52658.03;5066435;28;20065;-68
2021/12/14 04:09:12;;;;;;;;;;;;;;;-144.99;100.00;52680.47;5065232;28;19993;-68
2021/12/14 04:11:38;;;;;;;;;;;;;;;-144.99;100.00;52692.69;5068957;28;19980;-68
2021/12/14 04:14:07;;;;;;;;;;;;;;;-144.99;100.00;52656.00;5067610;28;19989;-68
2021/12/14 04:16:34;;;;;;;;;;;;;;;-144.99;100.00;52668.22;5067634;28;20387;-68
2021/12/14 04:19:04;;;;;;;;;;;;;;;-144.99;100.00;52645.81;5068226;28;20368;-68
2021/12/14 04:21:31;;;;;;;;;;;;;;;-144.99;100.00;52678.44;5069343;28;20453;-67
2021/12/14 04:23:59;;;;;;;;;;;;;;;-144.99;100.00;52688.63;5081725;22;20001;-59
2021/12/14 04:26:26;;;;;;;;;;;;;;;-144.99;100.00;52680.47;5067613;28;19935;-61
2021/12/14 04:28:54;;;;;;;;;;;;;;;-144.99;100.00;52688.63;5069074;28;20091;-62
2021/12/14 04:31:21;;;;;;;;;;;;;;;-144.99;100.00;52696.78;5068708;28;20115;-58
2021/12/14 04:33:48;;;;;;;;;;;;;;;-144.99;100.00;52668.22;5066138;28;20371;-58
2021/12/14 04:36:16;;;;;;;;;;;;;;;-144.99;100.00;52647.84;5064320;28;19953;-59
2021/12/14 04:38:55;;;;;;;;;;;;;;;-144.99;100.00;52678.44;5066814;28;19992;-59
2021/12/14 04:52:23;;;;;;;;;;;;;;;-144.99;100.00;52692.69;5067253;28;20093;-58
2021/12/14 04:54:50;;;;;;;;;;;;;;;-144.99;100.00;52684.53;5065826;28;20083;-57
2021/12/14 04:57:21;;;;;;;;;;;;;;;-144.99;100.00;52664.16;5066911;28;19977;-56
2021/12/14 04:59:47;;;;;;;;;;;;;;;-144.99;100.00;52656.00;5066029;28;20344;-56
2021/12/14 05:02:15;;;;;;;;;;;;;;;-144.99;100.00;52696.78;5065817;28;19980;-56
2021/12/14 05:04:42;;;;;;;;;;;;;;;-144.99;100.00;52643.78;5068613;28;19989;-59
2021/12/14 05:07:27;;;;;;;;;;;;;;;-144.99;100.00;52647.84;5069923;28;20452;-60
2021/12/14 05:09:53;;;;;;;;;;;;;;;-144.99;100.00;52662.13;5069856;28;19997;-59
2021/12/14 05:12:23;;;;;;;;;;;;;;;-144.99;100.00;52651.94;5070408;28;19979;-60
2021/12/14 05:14:51;;;;;;;;;;;;;;;-144.99;100.00;52696.78;5069158;28;20472;-60
2021/12/14 05:17:20;;;;;;;;;;;;;;;-144.99;100.00;52645.81;5069316;28;19977;-62
2021/12/14 05:19:47;;;;;;;;;;;;;;;-144.99;100.00;52702.88;5069728;28;19973;-60
2021/12/14 05:22:15;;;;;;;;;;;;;;;-144.99;100.00;52643.78;5070238;28;19992;-61
2021/12/14 05:24:43;;;;;;;;;;;;;;;-144.99;100.00;52619.31;5069544;28;20198;-62
2021/12/14 05:27:11;;;;;;;;;;;;;;;-144.99;100.00;52704.94;5062491;28;19973;-62
2021/12/14 05:29:40;;;;;;;;;;;;;;;-144.99;100.00;52668.22;5070437;28;20088;-62
2021/12/14 05:32:09;;;;;;;;;;;;;;;-144.99;100.00;52676.38;5069269;28;20473;-62
2021/12/14 05:34:36;;;;;;;;;;;;;;;-144.99;100.00;52631.53;5069084;28;19989;-62
2021/12/14 05:37:03;;;;;;;;;;;;;;;-144.99;100.00;52668.22;5068310;28;19983;-64
2021/12/14 05:44:55;;;;;;;;;;;;;;;-144.99;100.00;52664.16;5069543;28;20038;-63
2021/12/14 05:47:22;;;;;;;;;;;;;;;-144.99;100.00;52653.97;5063129;28;20017;-65
2021/12/14 05:49:49;;;;;;;;;;;;;;;-144.99;100.00;52643.78;5068113;28;19989;-64
2021/12/14 05:52:17;;;;;;;;;;;;;;;-144.99;100.00;52651.94;5068968;28;19995;-64
2021/12/14 05:54:44;;;;;;;;;;;;;;;-144.99;100.00;52625.44;5069652;28;20357;-63
2021/12/14 05:57:13;;;;;;;;;;;;;;;-144.99;100.00;52688.63;5065204;28;19983;-62
2021/12/14 05:59:40;;;;;;;;;;;;;;;-144.99;100.00;52645.81;5064726;28;19995;-62
2021/12/14 06:02:09;;;;;;;;;;;;;;;-144.99;100.00;52698.81;5066191;28;20064;-59
2021/12/14 06:04:37;;;;;;;;;;;;;;;-144.99;100.00;52676.38;5066422;28;20501;-70
2021/12/14 06:07:05;;;;;;;;;;;;;;;-144.99;100.00;52692.69;5067111;28;20027;-69
2021/12/14 06:09:32;;;;;;;;;;;;;;;-144.99;100.00;52690.66;5065598;28;19989;-69
2021/12/14 06:12:00;;;;;;;;;;;;;;;-144.99;100.00;52658.03;5061186;28;19996;-69
2021/12/14 06:14:27;;;;;;;;;;;;;;;-144.99;100.00;52627.47;5070137;28;19989;-69
2021/12/14 06:16:55;;;;;;;;;;;;;;;-144.99;100.00;52680.47;5070413;28;20034;-70
2021/12/14 06:19:24;;;;;;;;;;;;;;;-144.99;100.00;52692.69;5062781;28;20455;-69
2021/12/14 06:21:52;;;;;;;;;;;;;;;-144.99;100.00;52647.84;4715218;28;10000754;-70
2021/12/14 06:24:19;;;;;;;;;;;;;;;-144.99;100.00;52656.00;5066351;28;20004;-70
2021/12/14 06:26:46;;;;;;;;;;;;;;;-144.99;100.00;52672.31;5067758;28;20040;-69
2021/12/14 06:29:14;;;;;;;;;;;;;;;-144.99;100.00;52660.09;5066381;28;20334;-70
2021/12/14 06:31:41;;;;;;;;;;;;;;;-144.99;100.00;52631.53;5067376;28;20003;-70
2021/12/14 06:34:15;;;;;;;;;;;;;;;-144.99;100.00;52692.69;5066245;28;19993;-69
2021/12/14 06:37:04;;;;;;;;;;;;;;;-144.99;100.00;52680.47;5065767;28;19982;-69
2021/12/14 06:39:30;;;;;;;;;;;;;;;-144.99;100.00;52672.31;5058112;28;20573;-69
2021/12/14 06:42:04;;;;;;;;;;;;;;;-144.99;100.00;52668.22;5058237;28;19973;-69
2021/12/14 06:44:30;;;;;;;;;;;;;;;-144.99;100.00;52656.00;5069873;28;20003;-68
2021/12/14 06:46:56;;;;;;;;;;;;;;;-144.99;100.00;52692.69;5069220;28;20226;-69
2021/12/14 06:49:23;;;;;;;;;;;;;;;-144.99;100.00;52676.38;5070102;28;19999;-69
2021/12/14 06:51:52;;;;;;;;;;;;;;;-144.99;100.00;52660.09;5065493;28;19995;-69
2021/12/14 06:54:20;;;;;;;;;;;;;;;-144.99;100.00;52660.09;5069520;28;20504;-68
2021/12/14 06:56:48;;;;;;;;;;;;;;;-144.99;100.00;52635.63;5064691;28;19977;-69
2021/12/14 06:59:16;;;;;;;;;;;;;;;-144.99;100.00;52704.94;5065910;28;20006;-69
2021/12/14 07:01:44;;;;;;;;;;;;;;;-144.99;100.00;52676.38;5064757;28;19977;-69
2021/12/14 07:04:12;;;;;;;;;;;;;;;-144.99;100.00;52723.28;5063678;28;19993;-69
2021/12/14 07:06:40;;;;;;;;;;;;;;;-144.99;100.00;52696.78;5065172;28;20318;-70
2021/12/14 07:09:09;;;;;;;;;;;;;;;-144.99;100.00;52635.63;5065793;28;20024;-70
2021/12/14 07:11:36;;;;;;;;;;;;;;;-144.99;100.00;52674.34;5061370;28;19981;-68
2021/12/14 07:14:06;;;;;;;;;;;;;;;-144.99;100.00;52647.84;5065712;28;20011;-69
2021/12/14 07:16:38;;;;;;;;;;;;;;;-144.99;100.00;52684.53;5066503;28;19973;-68
2021/12/14 07:19:06;;;;;;;;;;;;;;;-144.99;100.00;52656.00;5065879;28;20050;-69
2021/12/14 07:21:40;;;;;;;;;;;;;;;-144.99;100.00;52696.78;5065205;28;20032;-69
2021/12/14 07:24:25;;;;;;;;;;;;;;;-144.99;100.00;52674.34;5067575;28;20000;-68
2021/12/14 07:27:12;;;;;;;;;;;;;;;-144.99;100.00;52668.22;5067750;28;19977;-69
2021/12/14 07:29:40;;;;;;;;;;;;;;;-144.99;100.00;52694.72;5066534;28;19996;-69
2021/12/14 07:32:07;;;;;;;;;;;;;;;-144.99;100.00;52694.72;5066898;28;19981;-69
2021/12/14 07:34:34;;;;;;;;;;;;;;;-144.99;100.00;52660.09;5065636;28;19995;-70
2021/12/14 07:37:01;;;;;;;;;;;;;;;-144.99;100.00;52702.88;5065600;28;20506;-70
2021/12/14 07:39:27;;;;;;;;;;;;;;;-144.99;100.00;52674.34;5059009;28;19976;-68
2021/12/14 07:41:55;;;;;;;;;;;;;;;-144.99;100.00;52664.16;5062692;28;20191;-68
2021/12/14 07:44:23;;;;;;;;;;;;;;;-144.99;100.00;52643.78;5067812;28;19997;-69
2021/12/14 07:46:53;;;;;;;;;;;;;;;-144.99;100.00;52651.94;5067796;28;19977;-69
2021/12/14 07:49:20;;;;;;;;;;;;;;;-144.99;100.00;52656.00;5068753;28;19993;-69
2021/12/14 07:51:48;;;;;;;;;;;;;;;-144.99;100.00;52690.66;5068232;28;19977;-69
2021/12/14 07:54:16;;;;;;;;;;;;;;;-144.99;100.00;52660.09;5064327;28;20012;-69
2021/12/14 07:56:44;;;;;;;;;;;;;;;-144.99;100.00;52651.94;5067433;28;19996;-69
2021/12/14 07:59:22;;;;;;;;;;;;;;;-144.99;100.00;52662.13;5063042;28;19973;-68
2021/12/14 08:01:50;;;;;;;;;;;;;;;-144.99;100.00;52633.59;5062870;28;20072;-70
2021/12/14 08:04:18;;;;;;;;;;;;;;;-144.99;100.00;52684.53;5063437;28;20004;-69
2021/12/14 08:06:49;;;;;;;;;;;;;;;-144.99;100.00;52668.22;5064940;28;19977;-71
2021/12/14 08:09:18;;;;;;;;;;;;;;;-144.99;100.00;52651.94;5065270;28;20415;-69
2021/12/14 08:11:49;;;;;;;;;;;;;;;-144.99;100.00;52645.81;5067253;28;20435;-70
2021/12/14 08:14:24;;;;;;;;;;;;;;;-144.99;100.00;52660.09;5066886;28;19996;-69
2021/12/14 08:16:53;;;;;;;;;;;;;;;-144.99;100.00;52629.50;5065270;28;19959;-68
2021/12/14 08:19:30;;;;;;;;;;;;;;;-144.99;100.00;52688.63;5068979;28;20478;-68
2021/12/14 08:21:57;;;;;;;;;;;;;;;-144.99;100.00;52635.63;5068535;28;20048;-68
2021/12/14 08:24:23;;;;;;;;;;;;;;;-144.99;100.00;52692.69;5063736;28;19993;-69
2021/12/14 08:26:51;;;;;;;;;;;;;;;-144.99;100.00;52651.94;5069251;28;19973;-69
2021/12/14 08:29:19;;;;;;;;;;;;;;;-144.99;100.00;52656.00;5070281;28;19984;-68
2021/12/14 08:31:50;;;;;;;;;;;;;;;-144.99;100.00;52639.69;5068867;28;19992;-69
2021/12/14 08:34:20;;;;;;;;;;;;;;;-144.99;100.00;52688.63;5068146;28;20453;-69
2021/12/14 08:36:52;;;;;;;;;;;;;;;-144.99;100.00;52702.88;5069343;28;19973;-68
2021/12/14 08:39:21;;;;;;;;;;;;;;;-144.99;100.00;52656.00;5067749;28;19978;-69
2021/12/14 08:41:54;;;;;;;;;;;;;;;-144.99;100.00;52680.47;5065391;28;20449;-68
2021/12/14 08:44:26;;;;;;;;;;;;;;;-144.99;100.00;52680.47;5067608;28;19992;-68
2021/12/14 08:46:53;;;;;;;;;;;;;;;-144.99;100.00;52660.09;5067933;28;19995;-68
2021/12/14 08:49:20;;;;;;;;;;;;;;;-144.99;100.00;52662.13;5068869;28;19977;-69
2021/12/14 08:51:50;;;;;;;;;;;;;;;-144.99;100.00;52668.22;5065315;28;19976;-69
2021/12/14 08:54:21;;;;;;;;;;;;;;;-144.99;100.00;52676.38;5067110;28;19993;-69
2021/12/14 08:56:49;;;;;;;;;;;;;;;-144.99;100.00;52643.78;5065671;28;20348;-69
2021/12/14 08:59:16;;;;;;;;;;;;;;;-144.99;100.00;52668.22;5067657;28;19980;-69
2021/12/14 09:01:43;;;;;;;;;;;;;;;-144.99;100.00;52684.53;5066168;28;20016;-69
2021/12/14 09:04:14;;;;;;;;;;;;;;;-144.99;100.00;52658.03;5063652;28;20048;-69
2021/12/14 09:06:42;;;;;;;;;;;;;;;-144.99;100.00;52656.00;5062065;28;19977;-68
2021/12/14 09:09:12;;;;;;;;;;;;;;;-144.99;100.00;52660.09;5063018;28;19977;-69
2021/12/14 09:11:42;;;;;;;;;;;;;;;-144.99;100.00;52629.50;5061471;28;20358;-69
2021/12/14 09:14:13;;;;;;;;;;;;;;;-144.99;100.00;52631.53;5060384;28;20143;-69
2021/12/14 09:16:41;;;;;;;;;;;;;;;-144.99;100.00;52649.88;5057005;28;19984;-68
2021/12/14 09:19:09;;;;;;;;;;;;;;;-144.99;100.00;52676.38;5067103;28;19987;-68
2021/12/14 09:21:38;;;;;;;;;;;;;;;-144.99;100.00;52676.38;5067485;28;19985;-69
2021/12/14 09:24:06;;;;;;;;;;;;;;;-144.99;100.00;52660.09;5066944;28;20008;-69
2021/12/14 09:26:35;;;;;;;;;;;;;;;-144.99;100.00;52623.38;5065847;28;19983;-69
2021/12/14 09:29:05;;;;;;;;;;;;;;;-144.99;100.00;52658.03;5059497;28;20392;-68
2021/12/14 09:31:33;;;;;;;;;;;;;;;-144.99;100.00;52656.00;5064841;28;20028;-69
2021/12/14 09:34:00;;;;;;;;;;;;;;;-144.99;100.00;52631.53;5066971;28;20380;-69
2021/12/14 09:36:29;;;;;;;;;;;;;;;-144.99;100.00;52662.13;5065987;28;19983;-69
2021/12/14 09:38:56;;;;;;;;;;;;;;;-144.99;100.00;52700.84;5066443;28;19977;-69
2021/12/14 09:41:25;;;;;;;;;;;;;;;-144.99;100.00;52637.66;5067567;28;19981;-69
2021/12/14 09:43:52;;;;;;;;;;;;;;;-144.99;100.00;52664.16;5066523;28;20004;-69
2021/12/14 09:46:20;;;;;;;;;;;;;;;-144.99;100.00;52635.63;5065957;28;20040;-68
2021/12/14 09:48:48;;;;;;;;;;;;;;;-144.99;100.00;52621.34;5066465;28;20461;-69
2021/12/14 09:51:16;;;;;;;;;;;;;;;-144.99;100.00;52649.88;5066775;28;20397;-68
2021/12/14 09:53:44;;;;;;;;;;;;;;;-144.99;100.00;52668.22;5066649;28;20000;-68
2021/12/14 09:56:13;;;;;;;;;;;;;;;-144.99;100.00;52617.28;5067570;28;19984;-68
2021/12/14 09:58:41;;;;;;;;;;;;;;;-144.99;100.00;52647.84;5061455;28;20064;-68
2021/12/14 10:01:09;;;;;;;;;;;;;;;-144.99;100.00;52684.53;5066636;28;19995;-69
2021/12/14 10:03:38;;;;;;;;;;;;;;;-144.99;100.00;52653.97;5065876;28;20444;-69
2021/12/14 10:06:06;;;;;;;;;;;;;;;-144.99;100.00;52647.84;5053511;28;19981;-69
2021/12/14 10:08:34;;;;;;;;;;;;;;;-144.99;100.00;52625.44;5059223;28;19984;-69
2021/12/14 10:11:05;;;;;;;;;;;;;;;-144.99;100.00;52704.94;5066356;28;20003;-68
2021/12/14 10:13:33;;;;;;;;;;;;;;;-144.99;100.00;52651.94;5066691;28;20001;-69
2021/12/14 10:16:01;;;;;;;;;;;;;;;-144.99;100.00;52700.84;5062297;28;19977;-71
2021/12/14 10:18:28;;;;;;;;;;;;;;;-144.99;100.00;52635.63;5066539;28;19981;-70
2021/12/14 10:20:58;;;;;;;;;;;;;;;-144.99;100.00;52680.47;5071123;28;19977;-69
2021/12/14 10:23:25;;;;;;;;;;;;;;;-144.99;100.00;52639.69;5070443;28;20016;-70
2021/12/14 10:25:52;;;;;;;;;;;;;;;-144.99;100.00;52656.00;5070837;28;20046;-70
2021/12/14 10:28:19;;;;;;;;;;;;;;;-144.99;100.00;52631.53;5071228;28;19984;-70
2021/12/14 10:30:50;;;;;;;;;;;;;;;-144.99;100.00;52643.78;5072292;28;20008;-69
2021/12/14 10:33:17;;;;;;;;;;;;;;;-144.99;100.00;52656.00;5069661;28;19992;-69
2021/12/14 10:35:47;;;;;;;;;;;;;;;-144.99;100.00;52643.78;5072263;28;19973;-70
2021/12/14 10:38:21;;;;;;;;;;;;;;;-144.99;100.00;52623.38;5069612;28;20330;-69
2021/12/14 10:43:35;;;;;;;;;;;;;;;-144.99;100.00;52668.22;5062754;28;20143;-70
2021/12/14 10:46:03;;;;;;;;;;;;;;;-144.99;100.00;52660.09;5064813;28;20080;-70
2021/12/14 10:48:32;;;;;;;;;;;;;;;-144.99;100.00;52647.84;5058302;28;20058;-69
2021/12/14 10:51:02;;;;;;;;;;;;;;;-144.99;100.00;52658.03;5067571;28;20528;-70
2021/12/14 10:53:29;;;;;;;;;;;;;;;-144.99;100.00;52625.44;5063917;28;20238;-69
2021/12/14 10:55:58;;;;;;;;;;;;;;;-144.99;100.00;52680.47;5068510;28;19977;-69
2021/12/14 10:58:28;;;;;;;;;;;;;;;-144.99;100.00;52670.28;5070338;28;19980;-70
2021/12/14 11:00:56;;;;;;;;;;;;;;;-144.99;100.00;52615.25;5069230;28;19977;-69
2021/12/14 11:03:24;;;;;;;;;;;;;;;-144.99;100.00;52631.53;5058795;28;19997;-69
2021/12/14 11:05:52;;;;;;;;;;;;;;;-144.99;100.00;52643.78;5068932;28;19985;-69
2021/12/14 11:08:38;;;;;;;;;;;;;;;-144.99;100.00;52590.78;5070030;28;20025;-69
2021/12/14 11:11:07;;;;;;;;;;;;;;;-144.99;100.00;52625.44;5064547;28;19981;-69
2021/12/14 11:13:38;;;;;;;;;;;;;;;-144.99;100.00;52660.09;5067283;28;20079;-69
2021/12/14 11:16:06;;;;;;;;;;;;;;;-144.99;100.00;52664.16;5068794;28;19984;-69
2021/12/14 11:18:31;;;;;;;;;;;;;;;-144.99;100.00;52643.78;5056655;28;19985;-69
2021/12/14 11:21:00;;;;;;;;;;;;;;;-144.99;100.00;52664.16;5063650;28;19987;-69
2021/12/14 11:23:27;;;;;;;;;;;;;;;-144.99;100.00;52649.88;5067628;28;20172;-69
2021/12/14 11:25:56;;;;;;;;;;;;;;;-144.99;100.00;52658.03;5069917;28;19980;-70
2021/12/14 11:28:29;;;;;;;;;;;;;;;-144.99;100.00;52615.25;5069726;28;19992;-70
2021/12/14 11:30:57;;;;;;;;;;;;;;;-144.99;100.00;52664.16;5066809;28;20441;-70
2021/12/14 11:33:26;;;;;;;;;;;;;;;-144.99;100.00;52615.25;5065569;28;20019;-70
2021/12/14 11:35:55;;;;;;;;;;;;;;;-144.99;100.00;52619.31;5069924;28;20299;-70
2021/12/14 11:38:26;;;;;;;;;;;;;;;-144.99;100.00;52660.09;5069141;28;19989;-71
2021/12/14 11:40:53;;;;;;;;;;;;;;;-144.99;100.00;52656.00;5067316;28;19947;-69
2021/12/14 11:43:21;;;;;;;;;;;;;;;-144.99;100.00;52633.59;5067537;28;20276;-69
2021/12/14 11:45:49;;;;;;;;;;;;;;;-144.99;100.00;52615.25;5069734;28;19999;-69
2021/12/14 11:48:16;;;;;;;;;;;;;;;-144.99;100.00;52643.78;5069477;28;20030;-70
2021/12/14 11:50:44;;;;;;;;;;;;;;;-144.99;100.00;52651.94;5068616;28;20000;-70
2021/12/14 11:53:15;;;;;;;;;;;;;;;-144.99;100.00;52623.38;5067702;28;20246;-70
2021/12/14 11:55:43;;;;;;;;;;;;;;;-144.99;100.00;52635.63;5068902;28;20202;-69
2021/12/14 11:58:18;;;;;;;;;;;;;;;-144.99;100.00;52635.63;5064754;28;20459;-71
2021/12/14 12:00:46;;;;;;;;;;;;;;;-144.99;100.00;52635.63;5056172;28;20428;-70
2021/12/14 12:03:26;;;;;;;;;;;;;;;-144.99;100.00;52645.81;5065193;28;19979;-72
2021/12/14 12:05:59;;;;;;;;;;;;;;;-144.99;100.00;52639.69;5069365;28;19986;-71
2021/12/14 12:11:11;;;;;;;;;;;;;;;-144.99;100.00;52645.81;5058206;28;20100;-69
2021/12/14 12:13:38;;;;;;;;;;;;;;;-144.99;100.00;52578.53;5067709;28;19989;-70
2021/12/14 12:16:09;;;;;;;;;;;;;;;-144.99;100.00;52623.38;5068457;28;19984;-71
2021/12/14 12:18:37;;;;;;;;;;;;;;;-144.99;100.00;52647.84;5055831;28;19996;-72
2021/12/14 12:21:04;;;;;;;;;;;;;;;-144.99;100.00;52651.94;5072319;28;20464;-70
2021/12/14 12:23:33;;;;;;;;;;;;;;;-144.99;100.00;52590.78;5067446;28;20105;-73
2021/12/14 12:26:08;;;;;;;;;;;;;;;-144.99;100.00;52656.00;5063431;28;19974;-71
2021/12/14 12:28:37;;;;;;;;;;;;;;;-144.99;100.00;52664.16;5068737;28;20043;-70
2021/12/14 12:31:07;;;;;;;;;;;;;;;-144.99;100.00;52603.00;5074663;28;20007;-70
2021/12/14 12:33:34;;;;;;;;;;;;;;;-144.99;100.00;52578.53;5062659;28;20032;-71
2021/12/14 12:36:05;;;;;;;;;;;;;;;-144.99;100.00;52607.09;5067671;28;19981;-72
2021/12/14 12:38:44;;;;;;;;;;;;;;;-144.99;100.00;52603.00;5068936;28;20038;-73
2021/12/14 12:41:29;;;;;;;;;;;;;;;-144.99;100.00;52635.63;5067539;28;20042;-71
2021/12/14 12:43:59;;;;;;;;;;;;;;;-144.99;100.00;52653.97;5066848;28;20424;-72
2021/12/14 12:46:28;;;;;;;;;;;;;;;-144.99;100.00;52645.81;5064766;28;19976;-70
2021/12/14 12:49:04;;;;;;;;;;;;;;;-144.99;100.00;52660.09;5060252;28;20063;-72
2021/12/14 12:51:56;;;;;;;;;;;;;;;-144.99;100.00;52598.94;5068748;28;20007;-72